Pagrindinis puslapis
METAR-TAF:

METAR-TAF

Oro uostai :

Valdivija, Čilė

platuma: 39-37S, ilguma: 073-05W, Aukštis: 19 m

Dabartinis oras

Ataskaita buvo paskelbta 1 valandą ir 41 minutes, ne 03:00 UTC
Vėjas 7 kt iš Šiaurės/Šiaurės Rytų, svyruoja nuo Šiaurės/Šiaurės Vakarų ir Rytų/Šiaurės Rytų
Temperatūra 9°C
Drėgmė 93%
Slėgis 1004 hPa
Matomumas: 9000 m
Su prošvaistėmis ne aukštis 1800 ft
Apsiniaukę ne aukštis 2500 ft
lietus

METAR: SCVD 060300Z AUTO 02007KT 330V060 9000 -RA BKN018 OVC025 09/08 Q1004

Laikas: 00:41 (04:41 UTC)


TAF: trūkstamas

Orai ataskaitas ir orų prognozės (METAR, TAF).

turimą stotys yra geltonos ir raudonos taškus žemėlapyje.

Perkelti pele per norėdami pamatyti stoties vardą.

Tada spustelėkite, norėdami matyti oro stebėjimo ir prognozės.

Norėdami pakeisti žemėlapį: spustelėkite ant žalios mygtukų su juodo kryžiaus žemyn,; žalią mygtuką su brūkšneliu, jei norite nutolinti; arba žalių rodyklių gretimoms žemėlapius.


METAR-TAF: